Time;durP1;ratioP1;P1;durP2;ratioP2;P2;SDS_P1;SDS_P2;PMS_P1;PMS_P2;Temp;Humidity;BMP_temperature;BMP_pressure;BME280_temperature;BME280_humidity;BME280_pressure;Samples;Min_cycle;Max_cycle;Signal;HPM_P1;HPM_P2
2022/10/29 00:02:23;;;;;;;15.05;8.73;;;;;;;8.22;100.00;97520.00;4994913;28;20058;-69
2022/10/29 00:04:48;;;;;;;17.35;8.27;;;;;;;8.30;100.00;97524.63;4994965;28;20395;-69
2022/10/29 00:07:14;;;;;;;17.17;8.27;;;;;;;8.39;100.00;97519.91;4994283;28;20018;-70
2022/10/29 00:09:39;;;;;;;16.83;8.95;;;;;;;8.26;100.00;97518.22;4990423;28;20395;-70
2022/10/29 00:12:05;;;;;;;17.27;7.50;;;;;;;8.21;100.00;97527.41;4989269;28;20026;-67
2022/10/29 00:14:30;;;;;;;12.48;6.80;;;;;;;8.25;100.00;97527.53;4994680;28;20034;-69
2022/10/29 00:16:56;;;;;;;15.05;6.97;;;;;;;8.16;100.00;97519.41;4994091;28;20399;-70
2022/10/29 00:19:22;;;;;;;14.52;7.30;;;;;;;8.06;100.00;97513.53;4993137;28;20045;-69
2022/10/29 00:21:49;;;;;;;12.88;8.27;;;;;;;8.11;100.00;97513.34;4985760;28;20048;-69
2022/10/29 00:24:15;;;;;;;14.70;8.43;;;;;;;8.06;100.00;97513.53;4992775;28;20926;-68
2022/10/29 00:26:40;;;;;;;16.25;9.15;;;;;;;7.96;100.00;97511.97;4985463;28;20054;-69
2022/10/29 00:29:05;;;;;;;16.80;8.77;;;;;;;7.98;100.00;97517.91;4994348;28;20141;-69
2022/10/29 00:31:31;;;;;;;14.35;7.40;;;;;;;8.02;100.00;97522.38;4994284;28;20593;-69
2022/10/29 00:33:56;;;;;;;15.63;7.25;;;;;;;8.01;100.00;97525.41;4992767;28;20061;-69
2022/10/29 00:36:25;;;;;;;14.00;7.95;;;;;;;7.99;100.00;97527.69;4993458;28;20042;-70
2022/10/29 00:38:51;;;;;;;14.32;6.82;;;;;;;8.00;100.00;97532.81;4993350;28;20055;-70
2022/10/29 00:41:22;;;;;;;15.10;7.55;;;;;;;7.98;100.00;97529.63;4986054;28;20043;-69
2022/10/29 00:43:51;;;;;;;14.95;6.95;;;;;;;8.03;100.00;97544.97;4974767;28;20041;-69
2022/10/29 00:46:23;;;;;;;13.53;7.23;;;;;;;8.18;100.00;97544.44;4980856;28;20163;-68
2022/10/29 00:48:52;;;;;;;15.75;6.85;;;;;;;8.20;100.00;97542.16;4985504;28;20357;-69
2022/10/29 00:51:18;;;;;;;9.60;6.70;;;;;;;8.28;100.00;97539.72;4993995;28;20038;-69
2022/10/29 00:53:49;;;;;;;16.70;7.10;;;;;;;8.24;100.00;97529.44;4992499;28;20424;-69
2022/10/29 00:56:15;;;;;;;15.00;7.50;;;;;;;8.15;100.00;97525.97;4992706;28;20026;-68
2022/10/29 00:58:42;;;;;;;16.27;7.95;;;;;;;8.04;100.00;97527.50;4994020;28;20117;-69
2022/10/29 01:01:07;;;;;;;16.65;8.05;;;;;;;7.85;100.00;97525.22;4995474;28;20134;-70
2022/10/29 01:03:33;;;;;;;16.23;7.43;;;;;;;7.80;100.00;97525.38;4996360;28;20034;-70
2022/10/29 01:06:00;;;;;;;12.93;6.20;;;;;;;7.87;100.00;97531.13;4993329;28;20042;-70
2022/10/29 01:08:26;;;;;;;13.63;6.05;;;;;;;8.00;100.00;97538.28;4992040;28;20031;-71
2022/10/29 01:11:13;;;;;;;16.23;7.47;;;;;;;8.16;100.00;97530.31;4986730;28;20447;-69
2022/10/29 01:14:09;;;;;;;12.43;6.90;;;;;;;8.14;100.00;97529.03;4993841;28;20117;-69
2022/10/29 01:16:53;;;;;;;9.70;6.50;;;;;;;8.22;100.00;97530.91;4991972;28;20037;-70
2022/10/29 01:19:30;;;;;;;10.27;6.00;;;;;;;8.35;100.00;97520.88;4993280;28;20158;-69
2022/10/29 01:22:19;;;;;;;14.23;5.88;;;;;;;8.38;100.00;97523.75;4993495;28;20042;-70
2022/10/29 01:25:19;;;;;;;11.20;6.32;;;;;;;8.52;100.00;97526.25;4984541;28;20046;-69
2022/10/29 01:27:52;;;;;;;12.60;6.15;;;;;;;8.56;100.00;97529.91;4970774;28;20084;-69
2022/10/29 01:30:26;;;;;;;14.32;6.05;;;;;;;8.56;100.00;97538.09;4981422;28;20038;-69
2022/10/29 01:32:56;;;;;;;13.80;6.50;;;;;;;8.60;100.00;97530.84;4986351;28;20065;-69
2022/10/29 01:35:53;;;;;;;16.77;6.88;;;;;;;8.51;100.00;97523.84;4992543;28;20034;-69
2022/10/29 01:38:19;;;;;;;15.07;6.43;;;;;;;8.54;100.00;97529.44;4988837;28;20054;-67
2022/10/29 01:41:18;;;;;;;12.45;5.63;;;;;;;8.70;100.00;97526.13;4980608;28;20836;-69
2022/10/29 01:43:49;;;;;;;9.63;5.45;;;;;;;8.75;100.00;97515.78;4984468;28;20030;-69
2022/10/29 01:46:20;;;;;;;13.48;5.85;;;;;;;8.76;100.00;97514.66;4992165;28;20038;-68
2022/10/29 01:48:50;;;;;;;13.55;5.53;;;;;;;8.64;100.00;97513.78;4991684;28;20026;-69
2022/10/29 01:51:27;;;;;;;12.55;6.63;;;;;;;8.11;100.00;97510.63;4995781;28;20045;-68
2022/10/29 01:53:53;;;;;;;12.00;6.07;;;;;;;8.05;100.00;97501.81;4987350;28;20527;-68
2022/10/29 01:56:18;;;;;;;15.63;6.65;;;;;;;8.14;100.00;97499.84;4989596;28;20116;-68
2022/10/29 01:58:48;;;;;;;9.30;6.10;;;;;;;8.38;100.00;97501.13;4992870;28;20487;-70
2022/10/29 02:01:32;;;;;;;14.68;5.90;;;;;;;8.55;100.00;97497.47;4992749;28;20085;-69
2022/10/29 02:03:57;;;;;;;15.55;6.00;;;;;;;8.67;100.00;97500.28;4992001;28;20069;-68
2022/10/29 02:06:57;;;;;;;8.50;5.70;;;;;;;8.77;100.00;97494.41;4992480;28;20680;-67
2022/10/29 02:09:40;;;;;;;15.45;6.10;;;;;;;8.67;100.00;97492.06;4983797;28;20038;-69
2022/10/29 02:12:22;;;;;;;10.30;6.47;;;;;;;8.38;100.00;97487.47;4991231;28;20395;-70
2022/10/29 02:15:12;;;;;;;13.48;6.55;;;;;;;8.29;100.00;97486.75;4972996;28;20096;-68
2022/10/29 02:17:37;;;;;;;12.05;6.40;;;;;;;8.33;100.00;97483.00;4972296;28;20045;-70
2022/10/29 02:20:05;;;;;;;11.55;5.95;;;;;;;8.48;100.00;97489.03;4972021;28;20031;-69
2022/10/29 02:22:30;;;;;;;13.32;5.70;;;;;;;8.65;100.00;97485.38;4978629;28;20120;-69
2022/10/29 02:24:56;;;;;;;9.40;5.65;;;;;;;8.76;100.00;97476.41;4994055;28;20034;-70
2022/10/29 02:27:21;;;;;;;12.40;6.40;;;;;;;8.73;100.00;97476.28;4992014;28;20038;-69
2022/10/29 02:29:46;;;;;;;14.25;6.10;;;;;;;8.62;100.00;97470.44;4992639;28;20482;-69
2022/10/29 02:32:12;;;;;;;13.35;6.95;;;;;;;8.51;100.00;97471.97;4993186;28;20030;-70
2022/10/29 02:34:37;;;;;;;16.10;5.93;;;;;;;8.58;100.00;97478.50;4992492;28;20034;-69
2022/10/29 02:37:03;;;;;;;16.63;6.80;;;;;;;8.69;100.00;97475.34;4990810;28;20508;-69
2022/10/29 02:39:29;;;;;;;13.90;6.20;;;;;;;8.78;100.00;97468.66;4991899;28;20444;-69
2022/10/29 02:41:55;;;;;;;14.57;6.70;;;;;;;8.81;100.00;97478.16;4991983;28;20026;-69
2022/10/29 02:44:20;;;;;;;10.35;5.43;;;;;;;8.96;100.00;97485.69;4990610;28;20129;-68
2022/10/29 02:46:45;;;;;;;10.98;5.85;;;;;;;8.98;100.00;97483.44;5005104;28;20034;-68
2022/10/29 02:49:11;;;;;;;13.98;5.40;;;;;;;8.92;100.00;97473.06;5007264;28;20488;-69
2022/10/29 02:51:36;;;;;;;10.55;6.10;;;;;;;8.97;100.00;97472.84;4991621;28;20031;-70
2022/10/29 02:54:01;;;;;;;13.32;6.32;;;;;;;8.89;100.00;97471.00;4983979;28;20033;-68
2022/10/29 02:56:27;;;;;;;16.00;6.72;;;;;;;8.84;100.00;97477.47;4990404;28;20492;-70
2022/10/29 02:58:52;;;;;;;9.30;5.80;;;;;;;8.98;100.00;97471.69;4991831;28;20031;-69
2022/10/29 03:01:17;;;;;;;11.75;5.68;;;;;;;9.14;100.00;97471.84;4991786;28;20031;-70
2022/10/29 03:03:43;;;;;;;14.65;6.75;;;;;;;9.17;100.00;97452.84;4991475;28;20038;-68
2022/10/29 03:06:13;;;;;;;11.88;5.57;;;;;;;9.12;100.00;97444.88;4988848;28;20403;-67
2022/10/29 03:08:39;;;;;;;12.20;6.03;;;;;;;8.92;100.00;97454.72;4973073;28;20031;-69
2022/10/29 03:11:04;;;;;;;8.38;5.38;;;;;;;8.91;100.00;97460.53;4970903;28;20060;-70
2022/10/29 03:13:29;;;;;;;10.30;5.82;;;;;;;9.08;100.00;97459.56;4973469;28;20031;-69
2022/10/29 03:15:55;;;;;;;15.52;5.38;;;;;;;9.09;100.00;97463.88;4988147;28;20059;-68
2022/10/29 03:18:20;;;;;;;13.13;6.72;;;;;;;9.17;100.00;97460.25;4980099;28;20049;-70
2022/10/29 03:20:46;;;;;;;10.93;6.25;;;;;;;9.36;100.00;97476.09;4985923;28;20031;-69
2022/10/29 03:23:12;;;;;;;12.52;6.88;;;;;;;9.42;100.00;97469.31;4982676;28;20038;-69
2022/10/29 03:25:38;;;;;;;18.13;6.55;;;;;;;9.49;100.00;97466.81;4996094;28;20031;-69
2022/10/29 03:28:03;;;;;;;13.52;5.65;;;;;;;9.53;100.00;97466.91;4993478;28;20031;-69
2022/10/29 03:30:30;;;;;;;13.88;6.35;;;;;;;9.54;100.00;97466.59;4981416;28;20069;-69
2022/10/29 03:32:55;;;;;;;10.48;6.10;;;;;;;9.34;100.00;97460.03;4990707;28;20058;-68
2022/10/29 03:35:21;;;;;;;11.63;6.20;;;;;;;9.14;100.00;97450.78;4991189;28;20092;-70
2022/10/29 03:37:50;;;;;;;12.40;6.45;;;;;;;9.03;100.00;97452.38;4991321;28;20034;-69
2022/10/29 03:40:16;;;;;;;16.33;6.70;;;;;;;9.08;100.00;97460.34;4992003;28;20047;-69
2022/10/29 03:42:42;;;;;;;13.63;7.32;;;;;;;9.05;100.00;97455.56;4991901;28;20057;-70
2022/10/29 03:45:08;;;;;;;12.25;5.82;;;;;;;9.12;100.00;97458.53;4989000;28;20030;-70
2022/10/29 03:47:34;;;;;;;19.25;6.57;;;;;;;9.25;100.00;97469.50;4990866;28;20041;-70
2022/10/29 03:49:59;;;;;;;13.38;6.97;;;;;;;9.33;100.00;97458.47;4991872;28;20487;-68
2022/10/29 03:52:25;;;;;;;15.38;6.25;;;;;;;9.37;100.00;97474.97;4991829;28;20080;-70
2022/10/29 03:54:50;;;;;;;15.20;5.82;;;;;;;9.56;100.00;97471.69;4991884;28;20120;-68
2022/10/29 03:57:15;;;;;;;11.60;6.28;;;;;;;9.61;100.00;97470.69;5007160;28;20014;-69
2022/10/29 03:59:41;;;;;;;12.13;5.72;;;;;;;9.62;100.00;97458.59;4990124;28;20034;-70
2022/10/29 04:02:06;;;;;;;11.95;6.10;;;;;;;9.65;100.00;97461.47;4992753;28;20507;-68
2022/10/29 04:04:32;;;;;;;12.85;6.45;;;;;;;9.15;100.00;97455.13;4991544;28;20026;-69
2022/10/29 04:06:58;;;;;;;16.42;7.53;;;;;;;8.85;100.00;97454.47;4990641;28;20034;-67
2022/10/29 04:09:23;;;;;;;17.58;8.25;;;;;;;8.71;100.00;97451.25;4995220;28;20045;-70
2022/10/29 04:11:48;;;;;;;22.42;7.88;;;;;;;8.71;100.00;97456.69;4994904;28;20411;-69
2022/10/29 04:14:14;;;;;;;21.52;9.27;;;;;;;8.74;100.00;97458.78;4985659;28;20062;-69
2022/10/29 04:16:39;;;;;;;18.90;9.40;;;;;;;8.77;100.00;97460.84;4993253;28;20068;-69
2022/10/29 04:19:05;;;;;;;23.30;9.55;;;;;;;8.80;100.00;97463.69;4994690;28;20057;-69
2022/10/29 04:21:30;;;;;;;16.67;8.77;;;;;;;8.89;100.00;97468.25;4994707;28;20031;-69
2022/10/29 04:23:56;;;;;;;14.10;8.35;;;;;;;8.98;100.00;97466.22;4995055;28;20037;-70
2022/10/29 04:26:21;;;;;;;14.35;8.05;;;;;;;9.07;100.00;97460.69;4993919;28;20096;-69
2022/10/29 04:28:48;;;;;;;16.90;7.95;;;;;;;9.10;100.00;97457.28;4993024;28;20487;-70
2022/10/29 04:31:13;;;;;;;19.90;8.52;;;;;;;9.11;100.00;97448.75;4994400;28;20400;-68
2022/10/29 04:33:38;;;;;;;16.15;7.38;;;;;;;9.14;100.00;97448.06;4994644;28;20039;-70
2022/10/29 04:36:04;;;;;;;18.23;7.15;;;;;;;9.12;100.00;97465.94;4994051;28;20491;-69
2022/10/29 04:38:30;;;;;;;15.40;6.80;;;;;;;9.10;100.00;97458.06;4985631;28;20070;-70
2022/10/29 04:40:59;;;;;;;14.52;6.60;;;;;;;9.05;100.00;97460.22;4994573;28;20030;-68
2022/10/29 04:43:25;;;;;;;15.38;6.38;;;;;;;8.98;100.00;97453.41;4992977;28;20039;-69
2022/10/29 04:45:56;;;;;;;13.25;6.30;;;;;;;8.98;100.00;97441.66;4993650;28;20034;-68
2022/10/29 04:48:22;;;;;;;16.77;6.68;;;;;;;8.96;100.00;97447.44;4994472;28;20081;-69
2022/10/29 04:50:48;;;;;;;14.40;6.22;;;;;;;8.92;100.00;97457.47;4994329;28;20088;-69
2022/10/29 04:53:14;;;;;;;11.27;6.63;;;;;;;8.90;100.00;97456.22;4991965;28;20133;-70
2022/10/29 04:55:40;;;;;;;11.45;6.47;;;;;;;8.91;100.00;97453.16;4993530;28;20530;-70
2022/10/29 04:58:06;;;;;;;12.68;5.88;;;;;;;8.95;100.00;97456.78;4994756;28;20034;-70
2022/10/29 05:00:32;;;;;;;14.45;6.18;;;;;;;8.96;100.00;97458.38;4991758;28;20487;-70
2022/10/29 05:02:57;;;;;;;12.80;6.13;;;;;;;8.96;100.00;97457.59;4987792;28;20038;-70
2022/10/29 05:05:23;;;;;;;11.05;5.40;;;;;;;8.92;100.00;97456.66;4993824;28;20037;-69
2022/10/29 05:07:55;;;;;;;6.57;5.20;;;;;;;8.84;100.00;97452.06;4988883;28;20019;-69
2022/10/29 05:10:20;;;;;;;16.83;5.78;;;;;;;8.79;100.00;97448.44;4990573;28;20049;-69
2022/10/29 05:12:45;;;;;;;17.88;6.30;;;;;;;8.70;100.00;97446.94;4995653;28;20799;-70
2022/10/29 05:15:11;;;;;;;14.02;6.63;;;;;;;8.52;100.00;97447.06;5002449;28;20081;-70
2022/10/29 05:17:39;;;;;;;11.82;6.88;;;;;;;8.49;100.00;97457.88;5014503;28;20089;-69
2022/10/29 05:20:05;;;;;;;14.35;6.15;;;;;;;8.53;100.00;97456.84;4973552;28;20408;-68
2022/10/29 05:22:31;;;;;;;10.93;5.07;;;;;;;8.55;100.00;97451.88;4987285;28;20037;-67
2022/10/29 05:24:56;;;;;;;18.60;6.60;;;;;;;8.42;100.00;97451.00;4992324;28;20072;-69
2022/10/29 05:27:22;;;;;;;14.82;5.85;;;;;;;8.24;100.00;97452.25;4997224;28;20065;-70
2022/10/29 05:29:47;;;;;;;13.55;5.55;;;;;;;8.14;100.00;97453.44;5001060;28;20038;-70
2022/10/29 05:32:12;;;;;;;10.30;6.13;;;;;;;8.22;100.00;97458.03;4994173;28;20038;-70
2022/10/29 05:34:38;;;;;;;12.32;6.18;;;;;;;8.26;100.00;97458.16;4996289;28;20042;-71
2022/10/29 05:37:03;;;;;;;13.20;6.72;;;;;;;8.30;100.00;97458.28;4986316;28;20186;-69
2022/10/29 05:39:28;;;;;;;14.18;6.45;;;;;;;8.37;100.00;97458.56;4988665;28;20085;-68
2022/10/29 05:41:54;;;;;;;11.85;6.50;;;;;;;8.38;100.00;97458.25;4988412;28;20036;-68
2022/10/29 05:44:19;;;;;;;19.23;8.05;;;;;;;8.25;100.00;97459.31;4994167;28;20041;-68
2022/10/29 05:46:48;;;;;;;10.02;6.57;;;;;;;8.09;100.00;97466.50;4992222;28;20041;-69
2022/10/29 05:49:13;;;;;;;12.50;6.25;;;;;;;8.00;100.00;97459.16;4985489;28;20488;-69
2022/10/29 05:51:39;;;;;;;20.73;6.70;;;;;;;7.94;100.00;97454.22;4993743;28;20057;-68
2022/10/29 05:54:04;;;;;;;10.80;5.72;;;;;;;8.02;100.00;97464.28;4993526;28;20087;-69
2022/10/29 05:56:30;;;;;;;13.80;5.55;;;;;;;8.15;100.00;97463.22;4992764;28;20027;-68
2022/10/29 05:58:55;;;;;;;12.25;5.57;;;;;;;8.15;100.00;97462.44;4993273;28;20085;-68
2022/10/29 06:01:20;;;;;;;14.98;5.70;;;;;;;8.12;100.00;97465.81;4992374;28;20069;-68
2022/10/29 06:03:46;;;;;;;10.25;6.07;;;;;;;8.13;100.00;97462.75;4994629;28;20026;-68
2022/10/29 06:06:11;;;;;;;15.43;6.30;;;;;;;7.97;100.00;97462.53;5000649;28;20518;-70
2022/10/29 06:08:37;;;;;;;12.15;6.15;;;;;;;7.90;100.00;97464.19;5008756;28;20061;-68
2022/10/29 06:11:03;;;;;;;22.60;7.53;;;;;;;7.95;100.00;97459.34;4995189;28;20027;-68
2022/10/29 06:13:29;;;;;;;12.93;7.05;;;;;;;8.06;100.00;97464.41;4991609;28;20074;-68
2022/10/29 06:15:58;;;;;;;11.50;7.40;;;;;;;8.08;100.00;97464.88;4990999;28;20072;-69
2022/10/29 06:18:25;;;;;;;16.67;9.70;;;;;;;8.26;100.00;97473.75;4992547;28;20030;-69
2022/10/29 06:20:51;;;;;;;18.00;10.73;;;;;;;8.36;100.00;97471.41;4992509;28;20058;-68
2022/10/29 06:23:16;;;;;;;23.60;13.07;;;;;;;8.45;100.00;97470.59;4991356;28;20078;-69
2022/10/29 06:25:41;;;;;;;22.38;11.63;;;;;;;8.56;100.00;97474.50;4991765;28;20408;-68
2022/10/29 06:28:10;;;;;;;29.83;12.20;;;;;;;8.66;100.00;97476.84;4992423;28;20166;-68
2022/10/29 06:30:36;;;;;;;17.90;10.00;;;;;;;8.72;100.00;97477.44;5003659;28;20034;-68
2022/10/29 06:33:03;;;;;;;14.93;8.73;;;;;;;8.80;100.00;97474.63;5012489;28;20034;-70
2022/10/29 06:35:29;;;;;;;21.98;9.98;;;;;;;8.91;100.00;97471.44;4992830;28;20057;-69
2022/10/29 06:37:54;;;;;;;23.48;10.68;;;;;;;9.04;100.00;97477.75;4989968;28;20026;-68
2022/10/29 06:40:20;;;;;;;17.90;10.23;;;;;;;9.17;100.00;97471.19;4970444;28;20054;-68
2022/10/29 06:42:45;;;;;;;20.63;9.52;;;;;;;9.29;100.00;97473.13;4973391;28;20043;-68
2022/10/29 06:45:11;;;;;;;20.17;9.52;;;;;;;9.45;100.00;97468.59;4968410;28;20171;-68
2022/10/29 06:47:38;;;;;;;23.67;9.15;;;;;;;9.62;100.00;97466.81;4983263;28;20472;-68
2022/10/29 06:50:04;;;;;;;16.52;8.05;;;;;;;9.76;100.00;97473.53;4979243;28;20046;-68
2022/10/29 06:52:30;;;;;;;17.77;7.60;;;;;;;9.98;100.00;97476.16;4986638;28;20391;-68
2022/10/29 06:54:55;;;;;;;12.70;7.38;;;;;;;10.19;100.00;97470.50;4986558;28;20555;-68
2022/10/29 06:57:23;;;;;;;23.70;9.20;;;;;;;9.88;100.00;97475.44;4973985;28;20054;-69
2022/10/29 06:59:49;;;;;;;26.45;14.68;;;;;;;9.39;100.00;97469.97;4973893;28;20045;-68
2022/10/29 07:02:17;;;;;;;21.98;15.82;;;;;;;9.19;100.00;97471.66;4987418;28;20104;-67
2022/10/29 07:04:43;;;;;;;19.77;15.38;;;;;;;9.18;100.00;97464.56;4988175;28;20612;-68
2022/10/29 07:07:08;;;;;;;17.52;9.38;;;;;;;9.80;100.00;97470.13;4980928;28;20066;-68
2022/10/29 07:09:34;;;;;;;15.13;7.85;;;;;;;10.55;100.00;97468.84;4958001;28;20042;-68
2022/10/29 07:11:59;;;;;;;14.13;6.70;;;;;;;11.18;100.00;97477.28;4966621;28;20049;-68
2022/10/29 07:14:25;;;;;;;16.38;6.60;;;;;;;11.51;100.00;97476.16;4992551;28;20074;-68
2022/10/29 07:16:51;;;;;;;13.98;6.63;;;;;;;11.83;100.00;97479.66;4965238;28;20062;-69
2022/10/29 07:19:17;;;;;;;20.73;7.25;;;;;;;12.20;100.00;97471.13;4962475;28;20109;-69
2022/10/29 07:21:42;;;;;;;15.32;5.88;;;;;;;12.64;100.00;97472.84;4971691;28;20046;-69
2022/10/29 07:24:08;;;;;;;12.00;4.97;;;;;;;13.24;100.00;97474.41;4965936;28;20053;-67
2022/10/29 07:26:34;;;;;;;9.90;5.70;;;;;;;13.66;100.00;97481.81;4984765;28;20057;-68
2022/10/29 07:28:59;;;;;;;13.85;4.88;;;;;;;14.17;100.00;97478.72;4985517;28;20660;-68
2022/10/29 07:31:25;;;;;;;7.40;4.63;;;;;;;14.49;100.00;97487.41;4976974;28;20039;-68
2022/10/29 07:33:51;;;;;;;10.48;4.35;;;;;;;14.54;100.00;97478.81;4960141;28;20038;-68
2022/10/29 07:36:16;;;;;;;19.60;5.45;;;;;;;15.01;100.00;97482.16;4959998;28;20042;-69
2022/10/29 07:38:42;;;;;;;13.02;4.25;;;;;;;15.33;98.88;97478.97;4967921;28;20047;-69
2022/10/29 07:41:07;;;;;;;11.00;4.38;;;;;;;15.60;95.18;97487.09;4976075;28;20188;-68
2022/10/29 07:43:32;;;;;;;12.43;4.88;;;;;;;15.51;97.91;97489.38;4985181;28;20053;-68
2022/10/29 07:45:58;;;;;;;10.95;4.65;;;;;;;15.72;95.92;97483.25;4985200;28;20098;-69
2022/10/29 07:48:23;;;;;;;15.23;4.25;;;;;;;15.83;94.64;97492.47;4981510;28;20944;-68
2022/10/29 07:50:49;;;;;;;11.63;3.90;;;;;;;16.21;92.09;97485.63;4984837;28;20038;-68
2022/10/29 07:53:15;;;;;;;14.15;3.80;;;;;;;16.96;90.55;97481.69;4981498;28;20061;-70
2022/10/29 07:55:40;;;;;;;13.73;3.60;;;;;;;17.66;86.05;97487.00;4959021;28;20082;-68
2022/10/29 07:58:09;;;;;;;11.05;3.50;;;;;;;17.80;83.11;97492.53;4962997;28;20039;-69
2022/10/29 08:00:36;;;;;;;13.23;4.10;;;;;;;17.25;84.84;97487.31;4993535;28;20096;-68
2022/10/29 08:03:02;;;;;;;26.33;20.45;;;;;;;16.60;91.76;97484.28;4986804;28;20137;-68
2022/10/29 08:05:29;;;;;;;39.13;28.75;;;;;;;15.46;100.00;97485.00;4986056;28;20053;-68
2022/10/29 08:07:55;;;;;;;17.88;8.18;;;;;;;15.29;100.00;97469.84;4986257;28;20073;-70
2022/10/29 08:10:22;;;;;;;11.77;5.75;;;;;;;15.02;100.00;97481.00;4958768;28;20082;-68
2022/10/29 08:12:52;;;;;;;14.18;5.30;;;;;;;16.08;100.00;97472.50;4966032;28;20062;-69
2022/10/29 08:15:18;;;;;;;13.43;5.18;;;;;;;17.56;94.25;97483.03;4982587;28;20038;-67
2022/10/29 08:17:45;;;;;;;8.45;4.80;;;;;;;18.36;87.91;97478.28;4970668;28;20053;-69
2022/10/29 08:20:11;;;;;;;15.75;4.88;;;;;;;19.05;83.03;97483.22;4965260;28;20056;-69
2022/10/29 08:22:36;;;;;;;13.93;4.90;;;;;;;19.53;79.55;97481.75;4978930;28;20472;-71
2022/10/29 08:25:02;;;;;;;15.07;4.97;;;;;;;18.69;81.88;97483.34;4981430;28;20132;-67
2022/10/29 08:27:28;;;;;;;10.32;6.22;;;;;;;17.81;90.23;97474.75;4982187;28;20053;-69
2022/10/29 08:29:53;;;;;;;12.95;5.80;;;;;;;18.85;84.59;97473.78;4979753;28;20050;-69
2022/10/29 08:32:18;;;;;;;14.13;4.63;;;;;;;19.23;83.18;97476.78;4981320;28;20045;-70
2022/10/29 08:34:44;;;;;;;14.65;5.00;;;;;;;19.84;78.18;97476.41;4984322;28;20129;-69
2022/10/29 08:37:09;;;;;;;10.38;4.75;;;;;;;20.10;78.90;97474.22;4958701;28;20137;-69
2022/10/29 08:39:35;;;;;;;14.52;5.30;;;;;;;20.22;76.48;97476.47;4965195;28;20051;-69
2022/10/29 08:42:13;;;;;;;10.63;5.85;;;;;;;20.59;73.16;97472.91;4976523;28;20050;-68
2022/10/29 08:45:10;;;;;;;17.13;5.35;;;;;;;20.94;71.07;97467.34;4977104;28;20054;-68
2022/10/29 08:47:45;;;;;;;11.82;5.72;;;;;;;20.27;74.75;97469.69;4977400;28;20074;-69
2022/10/29 08:50:29;;;;;;;13.18;5.63;;;;;;;20.40;75.34;97468.75;4968922;28;20052;-69
2022/10/29 08:52:55;;;;;;;11.32;5.70;;;;;;;20.86;73.36;97466.66;4985241;28;20042;-69
2022/10/29 08:55:34;;;;;;;12.30;5.13;;;;;;;21.34;71.34;97465.63;4977938;28;20487;-69
2022/10/29 08:58:23;;;;;;;18.27;6.20;;;;;;;21.38;68.79;97463.56;4978376;28;20042;-69
2022/10/29 09:00:53;;;;;;;16.33;6.05;;;;;;;19.24;79.37;97470.03;4983264;28;20065;-70
2022/10/29 09:03:18;;;;;;;;;;;;;;;20.15;78.73;97466.22;4981049;28;20046;-69
2022/10/29 09:06:16;;;;;;;14.32;5.90;;;;;;;20.71;73.24;97466.06;4974749;28;19932;-69
2022/10/29 09:09:03;;;;;;;12.38;5.60;;;;;;;20.14;77.59;97464.63;4967865;28;20042;-67
2022/10/29 09:11:50;;;;;;;20.20;6.53;;;;;;;19.67;78.71;97462.22;4980978;28;20138;-68
2022/10/29 09:14:42;;;;;;;13.90;6.30;;;;;;;19.53;81.59;97459.53;4956907;28;20039;-68
2022/10/29 09:17:14;;;;;;;14.90;6.15;;;;;;;20.34;77.91;97455.69;4958983;28;20046;-69
2022/10/29 09:20:23;;;;;;;17.40;6.53;;;;;;;20.86;74.81;97451.97;4969300;28;20082;-71
2022/10/29 09:22:48;;;;;;;;;;;;;;;22.46;67.54;97458.28;4977491;28;20042;-69
2022/10/29 09:25:23;;;;;;;14.23;6.77;;;;;;;23.38;60.67;97456.81;4977940;28;19990;-70
2022/10/29 09:28:06;;;;;;;14.95;6.90;;;;;;;23.22;59.82;97466.72;4957270;28;20383;-69
2022/10/29 09:30:48;;;;;;;12.90;6.30;;;;;;;24.09;58.85;97461.94;4965564;28;20038;-69
2022/10/29 09:33:19;;;;;;;16.15;6.63;;;;;;;24.92;55.59;97455.72;4959518;28;20050;-70
2022/10/29 09:35:47;;;;;;;15.80;6.82;;;;;;;25.03;51.05;97466.63;4973323;28;20154;-69
2022/10/29 09:38:19;;;;;;;13.75;7.03;;;;;;;24.71;53.51;97451.50;4966581;28;20049;-69
2022/10/29 09:40:45;;;;;;;18.83;6.20;;;;;;;24.95;50.49;97454.03;4984190;28;20046;-69
2022/10/29 09:43:16;;;;;;;15.05;5.30;;;;;;;25.02;50.17;97453.06;4978986;28;20682;-69
2022/10/29 09:46:03;;;;;;;17.25;6.68;;;;;;;22.03;57.28;97451.44;4984665;28;20078;-69
2022/10/29 09:48:33;;;;;;;23.08;7.32;;;;;;;20.73;66.05;97449.72;4980688;28;20553;-69
2022/10/29 09:51:15;;;;;;;18.15;7.22;;;;;;;22.79;58.79;97442.47;4977989;28;20050;-69
2022/10/29 09:53:40;;;;;;;17.70;6.95;;;;;;;23.32;55.46;97442.56;4984032;28;20180;-69
2022/10/29 09:56:07;;;;;;;16.63;8.27;;;;;;;21.27;63.42;97439.88;4971125;28;20121;-68
2022/10/29 09:58:38;;;;;;;22.90;8.30;;;;;;;20.59;67.92;97438.72;4974361;28;20046;-67
2022/10/29 10:01:03;;;;;;;17.75;7.72;;;;;;;22.25;62.31;97439.91;4980281;28;20042;-68
2022/10/29 10:03:36;;;;;;;19.80;7.00;;;;;;;22.89;59.55;97433.09;4981431;28;20050;-69
2022/10/29 10:06:07;;;;;;;18.15;7.05;;;;;;;24.20;55.63;97445.66;4967041;28;20140;-69
2022/10/29 10:08:34;;;;;;;15.27;7.65;;;;;;;24.49;52.99;97440.09;4976765;28;20137;-69
2022/10/29 10:11:05;;;;;;;20.45;8.45;;;;;;;25.00;52.09;97433.88;4974533;28;20069;-69
2022/10/29 10:13:34;;;;;;;18.30;7.25;;;;;;;25.23;51.42;97432.78;4975597;28;20038;-68
2022/10/29 10:16:02;;;;;;;16.80;7.20;;;;;;;25.48;51.63;97432.03;4982058;28;20117;-70
2022/10/29 10:18:30;;;;;;;14.80;7.32;;;;;;;25.75;50.51;97433.59;4986849;28;20062;-69
2022/10/29 10:21:09;;;;;;;19.00;7.25;;;;;;;25.17;49.07;97426.16;4981389;28;20046;-69
2022/10/29 10:23:48;;;;;;;24.00;8.55;;;;;;;25.28;50.06;97428.66;4974785;28;20391;-68
2022/10/29 10:26:43;;;;;;;19.45;8.07;;;;;;;25.34;50.26;97427.66;4980583;28;20049;-68
2022/10/29 10:29:15;;;;;;;20.25;7.68;;;;;;;25.31;51.22;97424.97;4979437;28;20038;-68
2022/10/29 10:32:02;;;;;;;21.23;7.55;;;;;;;25.08;52.16;97418.41;4982319;28;20042;-68
2022/10/29 10:34:33;;;;;;;14.93;6.97;;;;;;;24.63;52.92;97418.53;4971776;28;20043;-67
2022/10/29 10:37:18;;;;;;;15.82;6.75;;;;;;;24.54;54.52;97419.19;4973929;28;20075;-67
2022/10/29 10:40:04;;;;;;;14.95;6.85;;;;;;;24.02;56.27;97416.16;4981560;28;20046;-68
2022/10/29 10:42:38;;;;;;;15.32;7.10;;;;;;;24.27;54.37;97409.06;4970388;28;20047;-68
2022/10/29 10:45:29;;;;;;;21.60;7.60;;;;;;;23.15;57.88;97405.41;4959457;28;20157;-69
2022/10/29 10:47:57;;;;;;;15.45;7.15;;;;;;;21.66;64.34;97394.72;4961205;28;20035;-68
2022/10/29 10:50:27;;;;;;;16.90;7.45;;;;;;;21.83;66.20;97392.81;4957741;28;20046;-69
2022/10/29 10:52:56;;;;;;;19.30;6.78;;;;;;;21.00;64.26;97391.28;4969546;28;20050;-68
2022/10/29 10:55:29;;;;;;;19.35;6.85;;;;;;;20.75;67.23;97374.94;4960397;28;20035;-68
2022/10/29 10:58:00;;;;;;;14.85;6.68;;;;;;;21.88;63.49;97374.84;4982658;28;20486;-68
2022/10/29 11:00:30;;;;;;;15.98;6.75;;;;;;;22.66;60.99;97377.34;4978184;28;20077;-68
2022/10/29 11:03:07;;;;;;;20.42;6.97;;;;;;;23.57;55.24;97372.09;4982495;28;20044;-69
2022/10/29 11:05:40;;;;;;;17.70;5.57;;;;;;;23.46;53.38;97366.78;4975610;28;20378;-68
2022/10/29 11:08:19;;;;;;;13.35;4.72;;;;;;;22.80;56.82;97362.28;4973983;28;20038;-66
2022/10/29 11:10:52;;;;;;;16.67;6.18;;;;;;;22.67;56.65;97362.13;4965942;28;20042;-69
2022/10/29 11:13:26;;;;;;;15.65;5.85;;;;;;;21.63;58.85;97353.75;4957252;28;20086;-68
2022/10/29 11:15:56;;;;;;;19.25;5.57;;;;;;;21.43;60.50;97350.06;4960129;28;20424;-67
2022/10/29 11:18:40;;;;;;;21.17;5.18;;;;;;;21.09;62.68;97343.44;4957997;28;20145;-68
2022/10/29 11:21:20;;;;;;;16.30;4.78;;;;;;;20.96;62.60;97342.44;4957542;28;20051;-70
2022/10/29 11:24:06;;;;;;;15.50;5.25;;;;;;;21.28;60.51;97341.16;4976284;28;20130;-67
2022/10/29 11:26:39;;;;;;;13.68;4.35;;;;;;;22.23;58.47;97334.31;4983621;28;20054;-68
2022/10/29 11:29:13;;;;;;;17.27;4.72;;;;;;;23.04;54.58;97337.81;4974439;28;20038;-68
2022/10/29 11:31:54;;;;;;;10.55;4.07;;;;;;;23.80;53.91;97331.97;4982729;28;20054;-67
2022/10/29 11:34:52;;;;;;;12.38;4.53;;;;;;;25.78;48.14;97320.47;4977901;28;20050;-68
2022/10/29 11:37:30;;;;;;;18.07;4.90;;;;;;;24.09;50.32;97324.84;4968226;28;20053;-68